Time;durP1;ratioP1;P1;durP2;ratioP2;P2;SDS_P1;SDS_P2;PMS_P1;PMS_P2;Temp;Humidity;BMP_temperature;BMP_pressure;BME280_temperature;BME280_humidity;BME280_pressure;Samples;Min_cycle;Max_cycle;Signal;HPM_P1;HPM_P2
2022/01/28 00:00:10;;;;;;;15.85;8.18;;;;;;;16.30;39.81;103361.56;4994225;28;20045;-73
2022/01/28 00:03:00;;;;;;;14.20;7.82;;;;;;;16.38;39.76;103368.41;4994222;28;20077;-83
2022/01/28 00:05:26;;;;;;;15.90;7.82;;;;;;;16.32;39.84;103364.88;4992670;28;20619;-74
2022/01/28 00:07:53;;;;;;;15.52;7.75;;;;;;;16.31;39.71;103373.44;4993637;28;20030;-74
2022/01/28 00:10:21;;;;;;;13.32;7.55;;;;;;;16.35;39.70;103380.03;4994056;28;20027;-74
2022/01/28 00:13:33;;;;;;;14.23;7.32;;;;;;;16.36;39.87;103392.72;4993693;28;20030;-74
2022/01/28 00:39:38;;;;;;;14.98;7.13;;;;;;;16.10;39.78;103372.78;4993653;28;20030;-73
2022/01/28 00:42:04;;;;;;;15.05;7.43;;;;;;;16.14;39.83;103368.31;4991997;28;20030;-73
2022/01/28 00:44:30;;;;;;;11.95;7.07;;;;;;;16.18;39.66;103360.31;4994495;28;20050;-73
2022/01/28 00:46:56;;;;;;;14.43;8.10;;;;;;;16.20;39.64;103366.34;4994046;28;20027;-73
2022/01/28 00:49:22;;;;;;;14.48;7.38;;;;;;;16.15;39.69;103366.38;4993366;28;20430;-73
2022/01/28 00:51:47;;;;;;;14.25;6.97;;;;;;;16.13;39.75;103363.91;4993356;28;20069;-73
2022/01/28 00:54:13;;;;;;;13.45;8.02;;;;;;;16.19;39.50;103353.69;4993328;28;20034;-72
2022/01/28 00:56:39;;;;;;;10.13;6.07;;;;;;;16.20;39.64;103344.28;4993178;28;20034;-74
2022/01/28 00:59:04;;;;;;;19.90;8.45;;;;;;;16.19;39.57;103331.59;4993178;28;20034;-72
2022/01/28 01:01:30;;;;;;;17.73;7.53;;;;;;;16.19;39.63;103332.44;4993036;28;20049;-72
2022/01/28 01:04:00;;;;;;;15.98;6.90;;;;;;;16.18;39.36;103341.00;4993085;28;20035;-74
2022/01/28 01:06:27;;;;;;;12.95;6.60;;;;;;;16.17;39.34;103334.66;4992974;28;20030;-74
2022/01/28 01:08:53;;;;;;;11.15;6.38;;;;;;;16.17;39.72;103339.31;4994190;28;20170;-74
2022/01/28 01:11:21;;;;;;;15.30;7.53;;;;;;;16.15;39.69;103334.09;4997108;28;20153;-74
2022/01/28 01:13:48;;;;;;;11.13;6.28;;;;;;;16.13;39.71;103338.28;4996990;28;20031;-85
2022/01/28 01:16:17;;;;;;;13.25;6.75;;;;;;;16.09;39.80;103325.03;4996978;28;20499;-74
2022/01/28 01:18:55;;;;;;;16.05;7.05;;;;;;;16.09;39.79;103332.50;4997140;28;20044;-85
2022/01/28 01:21:26;;;;;;;12.27;6.55;;;;;;;16.09;39.82;103341.59;4997257;28;20370;-79
2022/01/28 01:23:55;;;;;;;12.02;6.60;;;;;;;16.13;39.56;103339.09;4997133;28;20414;-74
2022/01/28 01:26:30;;;;;;;11.15;6.32;;;;;;;16.09;39.88;103326.97;4995447;28;20023;-74
2022/01/28 01:28:55;;;;;;;18.65;7.22;;;;;;;16.08;39.66;103331.66;4996918;28;20038;-74
2022/01/28 01:31:21;;;;;;;19.45;7.45;;;;;;;16.13;39.49;103327.25;4996727;28;20057;-74
2022/01/28 01:34:00;;;;;;;14.63;7.07;;;;;;;16.17;39.62;103322.78;4997034;28;20034;-74
2022/01/28 01:36:25;;;;;;;12.88;6.47;;;;;;;16.14;39.66;103312.34;4996700;28;20030;-73
2022/01/28 01:38:51;;;;;;;12.35;6.60;;;;;;;16.19;39.48;103309.53;4996532;28;20092;-73
2022/01/28 01:41:28;;;;;;;14.45;7.32;;;;;;;16.21;39.54;103316.41;4995227;28;20046;-73
2022/01/28 01:44:02;;;;;;;14.23;7.25;;;;;;;16.28;39.54;103307.81;4995348;28;20030;-74
2022/01/28 01:46:42;;;;;;;13.43;6.63;;;;;;;16.23;39.61;103310.59;4996543;28;20061;-73
2022/01/28 01:52:04;;;;;;;14.05;6.53;;;;;;;16.17;39.54;103292.44;4996243;28;20553;-73
2022/01/28 01:54:38;;;;;;;14.25;6.07;;;;;;;16.12;39.77;103296.06;4995127;28;20023;-85
2022/01/28 01:57:05;;;;;;;14.70;7.32;;;;;;;16.16;39.63;103299.88;4996497;28;20555;-73
2022/01/28 01:59:31;;;;;;;12.63;6.63;;;;;;;16.13;39.72;103294.97;4996411;28;20085;-73
2022/01/28 02:01:57;;;;;;;14.57;6.40;;;;;;;16.07;39.87;103290.59;4996122;28;20570;-85
2022/01/28 02:04:22;;;;;;;9.35;5.85;;;;;;;16.09;39.42;103294.69;4996031;28;20030;-74
2022/01/28 02:06:49;;;;;;;9.88;6.05;;;;;;;16.06;39.78;103305.50;4996113;28;20101;-73
2022/01/28 02:09:15;;;;;;;12.70;5.97;;;;;;;16.01;39.66;103306.34;4995946;28;20026;-73
2022/01/28 02:11:41;;;;;;;11.70;5.55;;;;;;;16.06;39.58;103305.50;4995957;28;20042;-73
2022/01/28 02:14:07;;;;;;;11.02;5.63;;;;;;;16.12;39.49;103306.28;4996025;28;20574;-73
2022/01/28 02:16:33;;;;;;;10.57;6.38;;;;;;;16.13;39.67;103313.44;4995899;28;20515;-74
2022/01/28 02:18:58;;;;;;;10.13;4.95;;;;;;;16.20;39.46;103319.47;4995933;28;20022;-75
2022/01/28 02:21:24;;;;;;;10.93;6.03;;;;;;;16.23;39.51;103322.44;4994704;28;20105;-73
2022/01/28 02:23:56;;;;;;;13.13;6.20;;;;;;;16.26;39.47;103310.84;4995664;28;20481;-74
2022/01/28 02:26:22;;;;;;;20.17;7.00;;;;;;;16.27;39.43;103303.41;4993294;28;20030;-73
2022/01/28 02:28:52;;;;;;;11.45;6.22;;;;;;;16.28;39.31;103292.06;4995578;28;20053;-73
2022/01/28 02:31:22;;;;;;;13.85;5.82;;;;;;;16.30;39.47;103287.06;4994488;28;20026;-85
2022/01/28 02:33:49;;;;;;;12.98;6.00;;;;;;;16.34;39.50;103301.13;4994293;28;20381;-73
2022/01/28 02:36:14;;;;;;;12.82;5.20;;;;;;;16.35;39.44;103297.25;4995788;28;20030;-73
2022/01/28 02:38:40;;;;;;;8.65;5.72;;;;;;;16.30;39.38;103308.31;4996241;28;20102;-85
2022/01/28 02:41:09;;;;;;;13.93;5.57;;;;;;;16.33;39.61;103299.50;4995406;28;20038;-78
2022/01/28 02:46:08;;;;;;;12.00;5.07;;;;;;;16.32;39.32;103264.72;4995404;28;20026;-73
2022/01/28 02:48:36;;;;;;;11.75;5.55;;;;;;;16.33;39.56;103267.19;4995034;28;20054;-85
2022/01/28 02:51:08;;;;;;;9.25;5.15;;;;;;;16.38;39.19;103260.78;4995226;28;20096;-73
2022/01/28 02:53:40;;;;;;;9.80;5.72;;;;;;;16.40;39.39;103250.31;4995228;28;20026;-73
2022/01/28 02:56:17;;;;;;;10.07;5.78;;;;;;;16.43;39.28;103251.66;4995194;28;20046;-73
2022/01/28 02:58:44;;;;;;;8.40;4.93;;;;;;;16.40;39.14;103261.34;4995196;28;20038;-73
2022/01/28 03:01:13;;;;;;;8.60;5.07;;;;;;;16.40;39.29;103253.06;4995084;28;20496;-73
2022/01/28 03:03:40;;;;;;;11.70;4.88;;;;;;;16.41;39.24;103249.19;4995030;28;20488;-73
2022/01/28 03:06:06;;;;;;;9.15;4.88;;;;;;;16.48;39.29;103254.38;4993732;28;20026;-73
2022/01/28 03:08:33;;;;;;;7.15;5.07;;;;;;;16.47;39.28;103270.06;4993631;28;20404;-74
2022/01/28 03:16:13;;;;;;;9.45;4.88;;;;;;;16.57;39.19;103245.16;4995005;28;20500;-74
2022/01/28 03:21:21;;;;;;;10.10;3.93;;;;;;;16.55;39.46;103249.28;4994744;28;20058;-74
2022/01/28 03:23:47;;;;;;;7.53;3.70;;;;;;;16.53;39.52;103255.09;4994691;28;20037;-73
2022/01/28 03:26:14;;;;;;;11.50;5.05;;;;;;;16.62;39.28;103247.00;4994691;28;20027;-85
2022/01/28 03:28:39;;;;;;;8.85;3.70;;;;;;;16.56;39.30;103243.50;4994802;28;20417;-74
2022/01/28 03:31:05;;;;;;;9.20;3.47;;;;;;;16.40;39.53;103236.50;4994435;28;20216;-73
2022/01/28 03:33:31;;;;;;;6.93;3.28;;;;;;;16.29;39.54;103237.72;4994228;28;20026;-73
2022/01/28 03:35:56;;;;;;;9.75;3.30;;;;;;;16.20;39.68;103250.50;4994316;28;20026;-73
2022/01/28 03:38:22;;;;;;;10.10;3.55;;;;;;;16.25;39.47;103258.75;4994362;28;20073;-73
2022/01/28 03:40:50;;;;;;;7.55;4.20;;;;;;;16.21;39.49;103254.91;4994258;28;20026;-74
2022/01/28 03:43:16;;;;;;;10.88;3.58;;;;;;;16.18;39.34;103231.50;4994536;28;20030;-82
2022/01/28 03:45:41;;;;;;;7.47;4.07;;;;;;;16.15;39.04;103236.75;4994191;28;20357;-74
2022/01/28 03:48:07;;;;;;;9.02;4.07;;;;;;;16.04;39.36;103258.91;4993822;28;20560;-73
2022/01/28 03:50:34;;;;;;;9.65;4.15;;;;;;;15.89;39.52;103253.53;4994184;28;20033;-85
2022/01/28 03:53:04;;;;;;;9.80;3.97;;;;;;;15.84;39.54;103253.56;4994182;28;20469;-73
2022/01/28 03:55:30;;;;;;;;;;;;;;;15.73;39.64;103285.06;4994344;28;20030;-73
2022/01/28 03:57:55;;;;;;;8.80;3.85;;;;;;;15.82;39.22;103261.31;4994217;28;19918;-75
2022/01/28 04:00:26;;;;;;;7.43;3.55;;;;;;;15.71;39.42;103227.47;4993894;28;20050;-73
2022/01/28 04:03:01;;;;;;;11.52;4.38;;;;;;;15.72;39.01;103231.88;4994046;28;20429;-72
2022/01/28 04:13:25;;;;;;;5.80;3.40;;;;;;;15.64;39.46;103246.28;4993671;28;20077;-73
2022/01/28 04:16:14;;;;;;;8.75;3.65;;;;;;;15.67;39.59;103240.19;4993748;28;20026;-73
2022/01/28 04:18:36;;;;;;;7.47;4.38;;;;;;;15.71;39.40;103232.97;4993487;28;20050;-75
2022/01/28 04:21:01;;;;;;;8.68;3.70;;;;;;;15.73;39.61;103238.22;4993503;28;20023;-73
2022/01/28 04:23:27;;;;;;;10.40;4.13;;;;;;;15.76;39.24;103224.66;4993610;28;20022;-73
2022/01/28 04:25:53;;;;;;;9.93;3.80;;;;;;;15.76;39.63;103221.09;4993578;28;20026;-73
2022/01/28 04:28:18;;;;;;;7.50;3.80;;;;;;;15.78;39.65;103219.69;4993650;28;20082;-73
2022/01/28 04:30:44;;;;;;;9.00;3.80;;;;;;;15.82;39.49;103214.44;4993799;28;20517;-78
2022/01/28 04:33:09;;;;;;;8.48;4.20;;;;;;;15.85;39.58;103205.56;4993662;28;20046;-73
2022/01/28 04:35:35;;;;;;;9.85;4.95;;;;;;;15.86;39.58;103187.91;4993372;28;20104;-74
2022/01/28 04:40:31;;;;;;;14.95;5.03;;;;;;;15.89;39.43;103179.09;4993654;28;20030;-73
2022/01/28 04:43:17;;;;;;;8.75;4.45;;;;;;;15.87;39.50;103174.94;4992874;28;20038;-73
2022/01/28 04:46:06;;;;;;;7.70;4.40;;;;;;;15.85;39.69;103169.72;4993218;28;20077;-85
2022/01/28 04:49:01;;;;;;;6.85;4.75;;;;;;;15.82;39.38;103173.09;4992882;28;20050;-73
2022/01/28 04:54:22;;;;;;;10.32;5.60;;;;;;;15.79;39.67;103179.16;4993364;28;20034;-73
2022/01/28 04:57:00;;;;;;;8.70;5.03;;;;;;;15.84;39.31;103183.81;4993013;28;20023;-72
2022/01/28 05:04:42;;;;;;;11.25;5.78;;;;;;;15.85;39.72;103179.94;4993137;28;20026;-73
2022/01/28 05:26:32;;;;;;;12.32;6.20;;;;;;;15.81;40.23;103172.25;4993167;28;20485;-72
2022/01/28 05:28:57;;;;;;;11.48;6.50;;;;;;;15.85;40.08;103172.50;4992765;28;20113;-73
2022/01/28 05:31:23;;;;;;;9.35;6.35;;;;;;;15.87;40.29;103181.31;4991529;28;20144;-73
2022/01/28 05:33:49;;;;;;;11.73;6.57;;;;;;;15.77;40.66;103159.34;4992987;28;20033;-73
2022/01/28 05:36:15;;;;;;;9.02;6.85;;;;;;;15.85;40.14;103171.66;4991613;28;20022;-73
2022/01/28 05:38:41;;;;;;;11.18;5.93;;;;;;;15.80;40.75;103186.34;4992962;28;20038;-73
2022/01/28 05:41:07;;;;;;;10.00;6.00;;;;;;;15.92;40.59;103178.50;4991568;28;20536;-73
2022/01/28 05:43:32;;;;;;;11.35;6.47;;;;;;;15.94;40.40;103181.78;4992748;28;20054;-73
2022/01/28 05:45:58;;;;;;;23.52;21.02;;;;;;;15.98;40.55;103182.03;4992666;28;20073;-71
2022/01/28 05:48:25;;;;;;;10.50;7.53;;;;;;;16.02;40.85;103172.06;4992267;28;20062;-72
2022/01/28 05:50:51;;;;;;;11.93;6.22;;;;;;;16.15;40.50;103154.81;4992448;28;20512;-72
2022/01/28 05:53:16;;;;;;;9.40;5.07;;;;;;;16.19;40.56;103146.81;4992639;28;20129;-72
2022/01/28 05:55:42;;;;;;;9.63;5.90;;;;;;;16.14;40.51;103135.81;4994722;28;20036;-72
2022/01/28 05:58:08;;;;;;;12.82;7.00;;;;;;;16.02;40.82;103136.19;4994886;28;20451;-72
2022/01/28 06:00:34;;;;;;;7.00;5.53;;;;;;;16.01;40.78;103134.56;4996201;28;20473;-72
2022/01/28 06:03:00;;;;;;;8.52;5.15;;;;;;;16.05;40.70;103125.41;4996384;28;20058;-71
2022/01/28 06:05:30;;;;;;;7.70;4.63;;;;;;;15.98;40.88;103119.44;4996077;28;20038;-71
2022/01/28 06:08:00;;;;;;;8.60;4.72;;;;;;;15.87;41.10;103126.19;4995892;28;20485;-72
2022/01/28 06:10:26;;;;;;;11.18;5.43;;;;;;;15.87;41.08;103120.66;4995968;28;20400;-72
2022/01/28 06:12:53;;;;;;;10.25;5.40;;;;;;;15.87;41.08;103115.16;4995958;28;20026;-72
2022/01/28 06:15:19;;;;;;;10.02;5.05;;;;;;;15.87;41.39;103120.66;4994722;28;20125;-74
2022/01/28 06:17:45;;;;;;;7.85;4.63;;;;;;;15.89;41.18;103121.19;4996159;28;20054;-73
2022/01/28 06:20:14;;;;;;;7.95;5.38;;;;;;;15.84;41.30;103129.50;4995657;28;20053;-73
2022/01/28 06:22:41;;;;;;;8.43;5.13;;;;;;;15.80;41.44;103137.53;4995707;28;20038;-73
2022/01/28 06:25:08;;;;;;;9.23;4.70;;;;;;;15.93;41.19;103138.78;4995663;28;20558;-73
2022/01/28 06:27:34;;;;;;;7.95;5.45;;;;;;;16.00;41.09;103113.63;4995616;28;20037;-73
2022/01/28 06:29:59;;;;;;;6.30;4.38;;;;;;;15.99;40.92;103110.03;4995593;28;20134;-73
2022/01/28 06:32:25;;;;;;;8.35;4.88;;;;;;;16.04;40.91;103106.41;4995660;28;20081;-73
2022/01/28 06:34:50;;;;;;;7.43;5.10;;;;;;;15.98;40.81;103104.81;4995597;28;20473;-73
2022/01/28 06:37:16;;;;;;;9.15;4.75;;;;;;;15.92;41.14;103089.44;4995550;28;20043;-72
2022/01/28 06:39:42;;;;;;;6.70;4.35;;;;;;;15.89;41.08;103084.53;4995418;28;20034;-72
2022/01/28 06:42:08;;;;;;;7.47;4.65;;;;;;;15.89;41.08;103085.34;4995381;28;20365;-73
2022/01/28 06:44:34;;;;;;;6.32;3.85;;;;;;;15.82;41.26;103074.66;4995614;28;20456;-73
2022/01/28 06:46:59;;;;;;;5.85;4.00;;;;;;;15.91;41.15;103068.50;4994962;28;20058;-73
2022/01/28 06:49:25;;;;;;;7.93;4.45;;;;;;;15.86;41.11;103063.03;4995602;28;20042;-72
2022/01/28 06:51:50;;;;;;;8.63;4.97;;;;;;;15.82;41.30;103060.88;4995216;28;20428;-72
2022/01/28 06:54:16;;;;;;;9.88;5.57;;;;;;;15.88;41.23;103056.13;4995121;28;20030;-72
2022/01/28 06:56:42;;;;;;;10.40;4.20;;;;;;;15.79;41.54;103068.91;4995083;28;20084;-72
2022/01/28 06:59:07;;;;;;;8.07;4.53;;;;;;;15.82;41.56;103065.56;4993830;28;20481;-70
2022/01/28 07:01:33;;;;;;;8.00;4.38;;;;;;;15.86;41.51;103076.81;4994961;28;20078;-71
2022/01/28 07:04:00;;;;;;;9.30;5.00;;;;;;;15.81;41.95;103075.78;4994948;28;20041;-80
2022/01/28 07:06:26;;;;;;;13.77;5.05;;;;;;;15.79;41.89;103082.69;4994105;28;20053;-70
2022/01/28 07:08:52;;;;;;;8.20;5.07;;;;;;;15.86;41.77;103083.16;4994782;28;20033;-70
2022/01/28 07:11:18;;;;;;;11.20;4.75;;;;;;;15.92;41.74;103094.97;4994784;28;20384;-71
2022/01/28 07:13:44;;;;;;;7.43;4.63;;;;;;;15.85;42.02;103084.28;4995054;28;20026;-71
2022/01/28 07:16:10;;;;;;;8.00;4.63;;;;;;;15.91;41.95;103083.13;4993482;28;20366;-75
2022/01/28 07:18:35;;;;;;;9.30;4.82;;;;;;;15.94;41.98;103076.19;4994604;28;20038;-73
2022/01/28 07:21:01;;;;;;;8.40;4.43;;;;;;;16.04;41.69;103068.63;4994623;28;20030;-74
2022/01/28 07:23:27;;;;;;;10.32;5.47;;;;;;;15.95;41.91;103066.81;4994445;28;20030;-72
2022/01/28 07:25:53;;;;;;;8.38;4.53;;;;;;;16.02;42.15;103062.59;4994515;28;20053;-74
2022/01/28 07:28:19;;;;;;;5.88;4.13;;;;;;;16.09;42.00;103054.75;4994384;28;20048;-72
2022/01/28 07:30:44;;;;;;;7.65;4.65;;;;;;;16.14;42.05;103048.38;4994411;28;20490;-74
2022/01/28 07:33:10;;;;;;;9.73;5.05;;;;;;;16.12;42.12;103049.78;4994298;28;20039;-73
2022/01/28 07:35:36;;;;;;;7.45;4.65;;;;;;;16.04;42.42;103052.09;4994333;28;20397;-76
2022/01/28 07:38:03;;;;;;;8.13;5.32;;;;;;;16.18;42.16;103043.91;4994460;28;20045;-75
2022/01/28 07:40:29;;;;;;;12.38;5.80;;;;;;;16.21;42.14;103050.78;4990912;28;20054;-72
2022/01/28 07:42:54;;;;;;;8.90;4.55;;;;;;;16.30;42.19;103043.47;4992356;28;20453;-76
2022/01/28 07:45:20;;;;;;;9.40;4.80;;;;;;;16.26;42.39;103040.50;4993917;28;20030;-73
2022/01/28 07:47:46;;;;;;;7.22;4.50;;;;;;;16.24;42.43;103039.13;4993692;28;20101;-73
2022/01/28 07:50:14;;;;;;;8.50;4.47;;;;;;;16.23;42.62;103040.25;4991033;28;20478;-73
2022/01/28 07:52:40;;;;;;;10.10;4.75;;;;;;;16.30;42.61;103046.25;4971304;28;20038;-73
2022/01/28 07:55:07;;;;;;;6.45;4.63;;;;;;;16.30;42.60;103035.19;4977899;28;20828;-74
2022/01/28 07:57:34;;;;;;;10.82;4.45;;;;;;;16.38;42.42;103026.25;4977802;28;20040;-75
2022/01/28 08:00:00;;;;;;;9.57;5.30;;;;;;;16.48;42.43;103026.13;4978858;28;20381;-74
2022/01/28 08:02:27;;;;;;;13.77;6.20;;;;;;;16.45;42.66;103036.94;4977867;28;20022;-77
2022/01/28 08:04:53;;;;;;;8.35;4.80;;;;;;;16.55;42.43;103037.63;4977875;28;20031;-74
2022/01/28 08:07:19;;;;;;;11.15;5.88;;;;;;;16.59;42.59;103033.13;4977651;28;20036;-77
2022/01/28 08:09:44;;;;;;;9.40;5.45;;;;;;;16.53;43.07;103055.59;4978084;28;20030;-77
2022/01/28 08:12:10;;;;;;;9.65;5.38;;;;;;;16.58;43.06;103044.47;4977634;28;20137;-73
2022/01/28 08:14:36;;;;;;;9.13;5.57;;;;;;;16.60;43.24;103058.78;4991367;28;20038;-74
2022/01/28 08:17:01;;;;;;;10.90;5.72;;;;;;;16.71;43.04;103062.28;4993021;28;20034;-77
2022/01/28 08:19:27;;;;;;;10.55;5.97;;;;;;;16.75;42.88;103055.03;4993010;28;20026;-76
2022/01/28 08:21:52;;;;;;;16.92;7.07;;;;;;;16.87;42.62;103047.13;4989776;28;20081;-74
2022/01/28 08:24:18;;;;;;;12.77;6.32;;;;;;;16.86;43.06;103029.75;4991792;28;20034;-73
2022/01/28 08:26:44;;;;;;;13.05;7.28;;;;;;;16.77;43.35;103016.88;4993259;28;20026;-73
2022/01/28 08:29:09;;;;;;;10.65;5.95;;;;;;;16.94;43.09;103019.13;4992332;28;20050;-73
2022/01/28 08:31:36;;;;;;;8.30;6.03;;;;;;;16.99;43.12;103021.78;4992999;28;20037;-72
2022/01/28 08:34:02;;;;;;;11.10;6.93;;;;;;;17.07;42.83;103013.63;4993240;28;20481;-72
2022/01/28 08:36:28;;;;;;;11.30;6.90;;;;;;;17.04;43.02;103017.00;4993149;28;20030;-76
2022/01/28 08:38:55;;;;;;;14.88;7.93;;;;;;;17.05;43.42;103009.53;4992714;28;20018;-72
2022/01/28 08:41:24;;;;;;;10.18;6.45;;;;;;;17.19;43.18;103014.00;4991563;28;20030;-72
2022/01/28 08:43:51;;;;;;;10.73;6.35;;;;;;;17.28;43.06;102999.47;4969028;28;20046;-72
2022/01/28 08:46:17;;;;;;;11.32;6.75;;;;;;;17.36;42.88;102988.53;4971376;28;20041;-76
2022/01/28 08:48:43;;;;;;;10.77;6.82;;;;;;;17.33;43.25;103013.22;4986588;28;20386;-72
2022/01/28 08:51:09;;;;;;;18.55;9.52;;;;;;;17.35;43.28;103016.47;4990751;28;20018;-72
2022/01/28 08:53:36;;;;;;;11.85;6.53;;;;;;;17.43;43.04;103007.47;4992429;28;20023;-72
2022/01/28 08:56:02;;;;;;;13.93;7.72;;;;;;;17.09;44.17;103011.41;4991488;28;20038;-72
2022/01/28 08:58:28;;;;;;;11.50;6.70;;;;;;;17.07;44.23;103019.16;4992906;28;20037;-77
2022/01/28 09:00:54;;;;;;;15.48;7.40;;;;;;;17.16;44.52;103024.84;4992989;28;20545;-72
2022/01/28 09:03:21;;;;;;;14.18;6.70;;;;;;;17.15;44.33;103012.13;4992904;28;20030;-72
2022/01/28 09:05:47;;;;;;;10.60;6.70;;;;;;;17.23;44.08;102985.75;4993155;28;20080;-72
2022/01/28 09:08:13;;;;;;;13.23;7.47;;;;;;;17.13;44.55;102993.09;4992562;28;20034;-75
2022/01/28 09:10:45;;;;;;;13.80;6.75;;;;;;;17.09;44.99;102997.59;4992913;28;20027;-73
2022/01/28 09:13:22;;;;;;;13.80;8.40;;;;;;;17.28;44.38;103003.06;4992758;28;20022;-72
2022/01/28 09:15:48;;;;;;;12.35;7.00;;;;;;;17.45;44.20;103016.28;4992791;28;20030;-73
2022/01/28 09:18:14;;;;;;;15.10;6.63;;;;;;;17.54;43.94;103022.78;4992859;28;20034;-72
2022/01/28 09:20:40;;;;;;;12.73;6.97;;;;;;;17.64;43.44;103005.97;4992740;28;20109;-73
2022/01/28 09:23:07;;;;;;;13.07;7.32;;;;;;;17.77;43.37;103006.34;4992915;28;20031;-72
2022/01/28 09:25:34;;;;;;;8.38;5.97;;;;;;;17.86;43.25;103004.47;4991287;28;20045;-72
2022/01/28 09:28:01;;;;;;;11.20;6.43;;;;;;;17.96;43.35;102993.19;4992811;28;20030;-76
2022/01/28 09:30:26;;;;;;;12.93;7.45;;;;;;;18.01;43.19;102982.84;4993422;28;20523;-73
2022/01/28 09:32:52;;;;;;;12.00;7.07;;;;;;;18.03;43.40;102993.59;4997249;28;20066;-73
2022/01/28 09:35:18;;;;;;;12.98;6.90;;;;;;;18.17;43.30;102986.09;4996494;28;20034;-76
2022/01/28 09:37:44;;;;;;;10.27;6.43;;;;;;;18.34;42.96;102976.31;4996574;28;20030;-72
2022/01/28 09:40:10;;;;;;;10.57;6.82;;;;;;;18.32;43.22;102982.19;4996443;28;20030;-72
2022/01/28 09:42:41;;;;;;;13.35;7.10;;;;;;;18.43;43.02;102972.50;4995020;28;20393;-72
2022/01/28 09:45:09;;;;;;;11.32;5.55;;;;;;;18.48;43.01;102985.41;4996354;28;20365;-72
2022/01/28 09:47:35;;;;;;;10.40;5.80;;;;;;;18.46;43.16;102969.13;4995988;28;20125;-72
2022/01/28 09:50:03;;;;;;;8.75;5.22;;;;;;;18.56;43.11;102971.63;4996043;28;20023;-72
2022/01/28 09:52:29;;;;;;;9.98;6.10;;;;;;;18.51;43.51;102962.63;4996187;28;20073;-77
2022/01/28 09:54:55;;;;;;;13.13;8.32;;;;;;;18.50;43.49;102947.16;4994756;28;20492;-77
2022/01/28 09:57:21;;;;;;;16.70;13.88;;;;;;;18.68;43.11;102951.75;5000721;28;20602;-77
2022/01/28 09:59:47;;;;;;;9.10;6.18;;;;;;;18.76;43.10;102941.84;5015802;28;20044;-78
2022/01/28 10:02:14;;;;;;;9.57;5.88;;;;;;;18.81;43.45;102944.47;5015561;28;20037;-74
2022/01/28 10:04:40;;;;;;;11.25;8.05;;;;;;;18.92;43.10;102950.59;5000809;28;20026;-75
2022/01/28 10:07:15;;;;;;;10.15;6.93;;;;;;;18.78;43.73;102954.25;4995909;28;20045;-77
2022/01/28 10:09:57;;;;;;;9.73;6.50;;;;;;;18.77;43.64;102954.56;4995779;28;20085;-77
2022/01/28 10:12:36;;;;;;;13.10;10.82;;;;;;;18.80;43.90;102943.66;4996142;28;20022;-76
2022/01/28 10:15:17;;;;;;;11.30;6.70;;;;;;;19.00;43.45;102947.88;4977500;28;20538;-74
2022/01/28 10:17:54;;;;;;;8.48;5.35;;;;;;;19.02;43.70;102928.97;4979100;28;20113;-74
2022/01/28 10:20:25;;;;;;;8.07;5.18;;;;;;;18.95;43.80;102941.63;4979937;28;20037;-72
2022/01/28 10:22:57;;;;;;;9.38;6.43;;;;;;;18.99;43.58;102937.13;4980010;28;20042;-76
2022/01/28 10:25:37;;;;;;;8.73;5.60;;;;;;;19.03;43.65;102927.00;4991349;28;20026;-78
2022/01/28 10:28:08;;;;;;;11.35;6.00;;;;;;;19.03;43.90;102910.38;4993395;28;20615;-74
2022/01/28 10:30:42;;;;;;;7.53;5.30;;;;;;;19.11;43.61;102907.66;4995539;28;20034;-78
2022/01/28 10:33:19;;;;;;;9.90;5.68;;;;;;;19.13;43.66;102893.50;4995556;28;20109;-75
2022/01/28 10:35:53;;;;;;;12.75;7.00;;;;;;;19.18;43.74;102901.66;4995359;28;20272;-73
2022/01/28 10:38:41;;;;;;;8.35;4.85;;;;;;;19.26;43.52;102897.28;4995458;28;20033;-75
2022/01/28 10:41:16;;;;;;;6.95;4.65;;;;;;;19.40;43.43;102898.81;4994707;28;20026;-77
2022/01/28 10:43:43;;;;;;;6.75;4.75;;;;;;;19.31;43.81;102892.44;4995589;28;20449;-74
2022/01/28 10:46:09;;;;;;;9.05;5.03;;;;;;;19.40;43.58;102889.69;4993807;28;20023;-78
2022/01/28 10:48:51;;;;;;;8.27;4.60;;;;;;;19.23;44.05;102896.00;5003407;28;20056;-78
2022/01/28 10:51:22;;;;;;;8.30;4.85;;;;;;;19.39;43.72;102875.00;5005543;28;20379;-75
2022/01/28 10:54:11;;;;;;;7.07;5.55;;;;;;;19.41;43.79;102883.81;5004589;28;20030;-78
2022/01/28 10:56:50;;;;;;;6.38;4.53;;;;;;;19.47;43.65;102878.94;5005295;28;20018;-76
2022/01/28 10:59:20;;;;;;;8.63;5.82;;;;;;;19.46;43.61;102893.13;4990337;28;20030;-77
2022/01/28 11:01:47;;;;;;;7.60;5.25;;;;;;;19.55;43.66;102897.56;4994687;28;20125;-75
2022/01/28 11:04:14;;;;;;;11.60;7.40;;;;;;;19.72;43.44;102901.53;4993704;28;20023;-77
2022/01/28 11:06:41;;;;;;;11.02;6.60;;;;;;;19.67;43.70;102885.88;4994585;28;20034;-75
2022/01/28 11:09:08;;;;;;;8.00;4.57;;;;;;;19.80;43.48;102884.94;4994823;28;20054;-78
2022/01/28 11:11:34;;;;;;;8.45;6.30;;;;;;;19.95;43.24;102895.56;5004256;28;20032;-78
2022/01/28 11:14:00;;;;;;;8.40;4.47;;;;;;;19.76;43.97;102888.66;4979057;28;20018;-77
2022/01/28 11:16:26;;;;;;;6.82;4.88;;;;;;;19.86;43.72;102891.94;4994950;28;20030;-79
2022/01/28 11:18:54;;;;;;;8.10;5.10;;;;;;;20.00;43.45;102883.47;4994514;28;20413;-78
2022/01/28 11:21:30;;;;;;;7.35;5.35;;;;;;;20.05;43.42;102886.09;4996732;28;20022;-78
2022/01/28 11:24:06;;;;;;;8.60;4.70;;;;;;;19.92;43.70;102887.88;5003199;28;20029;-78
2022/01/28 11:27:10;;;;;;;9.68;4.78;;;;;;;19.97;43.46;102889.69;5000709;28;20024;-76
2022/01/28 11:29:36;;;;;;;8.50;5.15;;;;;;;20.22;43.23;102885.28;5003457;28;20026;-79
2022/01/28 11:32:17;;;;;;;7.57;5.05;;;;;;;20.02;43.48;102875.63;5002692;28;20366;-76
2022/01/28 11:35:02;;;;;;;8.80;5.03;;;;;;;20.16;43.47;102872.69;5005421;28;20412;-75
2022/01/28 11:37:33;;;;;;;8.57;4.93;;;;;;;20.28;43.26;102859.00;5013264;28;20406;-77
2022/01/28 11:40:14;;;;;;;5.18;4.20;;;;;;;20.35;43.23;102864.84;5003641;28;20541;-75
2022/01/28 11:42:40;;;;;;;8.75;4.68;;;;;;;20.38;43.17;102860.59;4999981;28;20485;-79
2022/01/28 11:45:11;;;;;;;4.80;3.40;;;;;;;20.42;43.15;102870.72;4988356;28;20034;-77
2022/01/28 11:47:51;;;;;;;6.20;3.92;;;;;;;20.24;43.76;102872.69;4998498;28;20050;-81
2022/01/28 11:50:19;;;;;;;8.05;5.40;;;;;;;20.36;43.52;102868.44;5005528;28;20101;-76
2022/01/28 11:52:51;;;;;;;5.63;3.72;;;;;;;20.43;43.33;102858.47;5009080;28;20064;-80
2022/01/28 11:55:17;;;;;;;15.95;14.65;;;;;;;20.58;43.19;102861.91;4993595;28;20057;-80
2022/01/28 11:58:04;;;;;;;5.85;4.55;;;;;;;20.44;43.72;102873.22;4984858;28;20690;-76
2022/01/28 12:00:54;;;;;;;6.65;5.53;;;;;;;20.56;43.57;102875.31;4981804;28;20022;-79
2022/01/28 12:03:25;;;;;;;6.30;4.38;;;;;;;20.74;43.31;102874.13;4984585;28;20034;-79
2022/01/28 12:05:58;;;;;;;5.35;3.88;;;;;;;20.75;43.61;102875.75;4982910;28;20030;-80
2022/01/28 12:08:31;;;;;;;4.20;2.67;;;;;;;20.61;43.75;102870.38;4981684;28;20026;-76
2022/01/28 12:10:57;;;;;;;6.25;4.68;;;;;;;21.05;43.00;102869.13;4983893;28;20018;-75
2022/01/28 12:13:49;;;;;;;4.47;2.67;;;;;;;20.87;43.47;102861.19;4984993;28;20026;-77
2022/01/28 12:16:40;;;;;;;3.97;3.53;;;;;;;20.29;44.73;102852.28;4982661;28;20019;-75
2022/01/28 12:19:17;;;;;;;4.25;2.88;;;;;;;21.21;42.92;102854.66;4983772;28;20034;-78
2022/01/28 12:22:07;;;;;;;6.10;3.58;;;;;;;21.34;42.38;102848.09;4983882;28;20022;-74
2022/01/28 12:24:35;;;;;;;3.83;2.85;;;;;;;21.40;42.27;102843.97;4981129;28;20022;-75
2022/01/28 12:27:10;;;;;;;5.63;3.58;;;;;;;21.50;42.24;102842.75;4983970;28;20347;-73
2022/01/28 12:29:45;;;;;;;4.45;3.08;;;;;;;21.61;41.91;102835.63;4983174;28;20023;-75
2022/01/28 12:32:12;;;;;;;4.88;3.53;;;;;;;21.60;41.77;102837.59;4981904;28;20394;-74
2022/01/28 12:34:45;;;;;;;4.32;3.08;;;;;;;21.23;42.62;102819.78;4984270;28;20018;-74
2022/01/28 12:37:10;;;;;;;5.35;4.03;;;;;;;21.48;42.04;102814.47;4982179;28;20023;-74
2022/01/28 12:39:42;;;;;;;4.15;3.75;;;;;;;21.60;41.62;102818.13;4982445;28;20499;-73
2022/01/28 12:42:22;;;;;;;4.60;3.67;;;;;;;21.33;42.63;102807.53;4982460;28;20027;-77
2022/01/28 12:44:52;;;;;;;;;;;;;;;21.43;42.00;102795.19;4981625;28;20077;-75